Pagrindinis puslapis
METAR-TAF:

METAR-TAF

Oro uostai :

Veiko sala, Jungtinės Amerikos Valstijos

platuma: 19-17N, ilguma: 166-39E, Aukštis: 4 m

Dabartinis oras

Ataskaita buvo paskelbta 25 minutes, ne 07:55 UTC
Vėjas 11 kt iš Rytų/Šiaurės Rytų
Temperatūra 28°C
Drėgmė 74%
Slėgis 1014 hPa
Matomumas: 14.5 km
Išsisklaidę debesys ne aukštis 2100 ft

METAR: PWAK 220755Z AUTO 06011KT 9SM SCT021 28/23 A2994 RMK AO2 SLP145 T02800227

Laikas: 20:20 (08:20 UTC)

Prognozė

Ataskaita buvo paskelbta 2 valandos ir 20 minutes, ne 06:00 UTC
Prognozė galioja nuo 22 metu 06 UTC su 23 metu 12 UTC
Vėjas 15 kt iš Rytų/Šiaurės Rytų
Matomumas 10 km arba daugiau
Išsisklaidę debesys ne aukštis 2600 ft

TAF: PWAK 220600Z 2206/2312 07015KT 9999 SCT026 QNH2990INS TX32/2207Z TN25/2209Z

Orai ataskaitas ir orų prognozės (METAR, TAF).

turimą stotys yra geltonos ir raudonos taškus žemėlapyje.

Perkelti pele per norėdami pamatyti stoties vardą.

Tada spustelėkite, norėdami matyti oro stebėjimo ir prognozės.

Norėdami pakeisti žemėlapį: spustelėkite ant žalios mygtukų su juodo kryžiaus žemyn,; žalią mygtuką su brūkšneliu, jei norite nutolinti; arba žalių rodyklių gretimoms žemėlapius.


METAR-TAF: